createdAt,value
2018-07-31T00:01:14.029Z,12.00
2018-07-31T00:03:42.887Z,10.53
2018-07-31T00:06:17.997Z,9.67
2018-07-31T00:08:47.893Z,9.77
2018-07-31T00:11:16.718Z,10.20
2018-07-31T00:13:45.557Z,10.20
2018-07-31T00:16:14.660Z,10.17
2018-07-31T00:18:43.616Z,9.93
2018-07-31T00:21:12.519Z,9.13
2018-07-31T00:23:41.348Z,8.93
2018-07-31T00:26:10.187Z,9.60
2018-07-31T00:28:39.028Z,10.10
2018-07-31T00:31:07.889Z,9.40
2018-07-31T00:33:36.735Z,11.57
2018-07-31T00:36:05.585Z,10.77
2018-07-31T00:38:34.478Z,11.00
2018-07-31T00:41:03.312Z,11.10
2018-07-31T00:43:32.166Z,11.93
2018-07-31T00:46:01.006Z,11.70
2018-07-31T00:48:29.739Z,11.73
2018-07-31T00:50:58.477Z,11.43
2018-07-31T00:53:27.253Z,11.20
2018-07-31T00:55:56.001Z,11.03
2018-07-31T00:58:24.734Z,12.57
2018-07-31T01:00:53.740Z,10.43
2018-07-31T01:03:22.491Z,11.03
2018-07-31T01:05:51.227Z,11.80
2018-07-31T01:08:20.041Z,10.53
2018-07-31T01:10:48.786Z,9.33
2018-07-31T01:13:17.553Z,9.87
2018-07-31T01:15:46.381Z,9.93
2018-07-31T01:18:15.104Z,10.67
2018-07-31T01:20:43.913Z,11.33
2018-07-31T01:23:12.634Z,10.80
2018-07-31T01:25:41.377Z,11.30
2018-07-31T01:28:10.168Z,10.03
2018-07-31T01:30:38.902Z,10.60
2018-07-31T01:33:07.657Z,10.20
2018-07-31T01:35:36.426Z,10.17
2018-07-31T01:38:05.150Z,9.27
2018-07-31T01:40:33.934Z,9.50
2018-07-31T01:43:02.674Z,10.03
2018-07-31T01:45:31.394Z,9.60
2018-07-31T01:48:00.116Z,9.00
2018-07-31T01:50:28.868Z,9.10
2018-07-31T01:52:57.569Z,9.47
2018-07-31T01:55:26.284Z,8.40
2018-07-31T01:57:55.006Z,10.50
2018-07-31T02:00:23.761Z,11.77
2018-07-31T02:02:52.462Z,10.77
2018-07-31T02:05:21.229Z,10.77
2018-07-31T02:07:50.020Z,11.27
2018-07-31T02:10:18.745Z,10.37
2018-07-31T02:12:47.505Z,11.20
2018-07-31T02:15:16.226Z,12.17
2018-07-31T02:17:44.955Z,11.40
2018-07-31T02:20:13.678Z,12.17
2018-07-31T02:22:42.440Z,11.83
2018-07-31T02:25:11.178Z,11.40
2018-07-31T02:27:39.902Z,12.50
2018-07-31T02:30:09.556Z,11.40
2018-07-31T02:32:39.158Z,10.87
2018-07-31T02:35:07.905Z,10.63
2018-07-31T02:37:36.617Z,10.30
2018-07-31T02:40:05.689Z,11.00
2018-07-31T02:42:34.403Z,10.53
2018-07-31T02:45:03.218Z,10.50
2018-07-31T02:47:31.923Z,9.17
2018-07-31T02:50:00.634Z,11.40
2018-07-31T02:52:29.382Z,9.63
2018-07-31T02:54:58.116Z,11.57
2018-07-31T02:57:26.873Z,12.10
2018-07-31T02:59:55.589Z,14.20
2018-07-31T03:02:24.350Z,12.77
2018-07-31T03:04:53.071Z,12.43
2018-07-31T03:07:21.810Z,9.90
2018-07-31T03:09:50.590Z,9.60
2018-07-31T03:12:19.304Z,9.30
2018-07-31T03:14:48.004Z,10.30
2018-07-31T03:17:16.774Z,11.37
2018-07-31T03:19:45.514Z,11.10
2018-07-31T03:22:14.281Z,11.00
2018-07-31T03:24:43.011Z,15.10
2018-07-31T03:27:12.502Z,14.37
2018-07-31T03:29:41.248Z,12.50
2018-07-31T03:32:10.070Z,12.27
2018-07-31T03:34:38.858Z,10.77
2018-07-31T03:37:07.587Z,10.23
2018-07-31T03:39:36.318Z,11.07
2018-07-31T03:42:05.030Z,11.30
2018-07-31T03:44:33.738Z,10.83
2018-07-31T03:47:02.513Z,11.30
2018-07-31T03:49:31.248Z,10.67
2018-07-31T03:51:59.980Z,12.27
2018-07-31T03:54:28.712Z,10.67
2018-07-31T03:56:57.438Z,15.33
2018-07-31T03:59:26.219Z,10.27
2018-07-31T04:01:54.951Z,11.30
2018-07-31T04:04:23.680Z,18.80
2018-07-31T04:06:52.442Z,13.07
2018-07-31T04:09:21.180Z,16.33
2018-07-31T04:11:49.903Z,12.33
2018-07-31T04:14:18.661Z,11.73
2018-07-31T04:16:47.423Z,12.70
2018-07-31T04:19:16.866Z,12.27
2018-07-31T04:21:45.632Z,15.97
2018-07-31T04:24:14.454Z,11.13
2018-07-31T04:26:43.245Z,12.47
2018-07-31T04:29:12.017Z,12.60
2018-07-31T04:31:40.818Z,12.07
2018-07-31T04:34:09.547Z,12.87
2018-07-31T04:36:38.294Z,21.20
2018-07-31T04:39:10.050Z,14.97
2018-07-31T04:41:38.778Z,16.50
2018-07-31T04:44:07.818Z,14.30
2018-07-31T04:46:36.923Z,14.90
2018-07-31T04:49:05.709Z,14.00
2018-07-31T04:51:34.421Z,14.90
2018-07-31T04:54:03.130Z,14.63
2018-07-31T04:56:32.118Z,13.10
2018-07-31T04:59:00.836Z,17.73
2018-07-31T05:01:29.557Z,12.20
2018-07-31T05:03:58.310Z,13.83
2018-07-31T05:06:27.083Z,15.83
2018-07-31T05:08:55.872Z,12.97
2018-07-31T05:11:24.594Z,12.90
2018-07-31T05:13:53.345Z,13.83
2018-07-31T05:16:22.050Z,14.60
2018-07-31T05:18:50.793Z,12.00
2018-07-31T05:21:19.584Z,17.40
2018-07-31T05:23:48.306Z,14.57
2018-07-31T05:26:17.038Z,13.50
2018-07-31T05:28:45.750Z,12.90
2018-07-31T05:31:15.946Z,11.47
2018-07-31T05:33:44.711Z,13.90
2018-07-31T05:36:13.417Z,13.60
2018-07-31T05:38:42.374Z,13.40
2018-07-31T05:41:11.293Z,13.13
2018-07-31T05:43:40.009Z,13.47
2018-07-31T05:46:08.806Z,14.20
2018-07-31T05:48:37.478Z,14.83
2018-07-31T05:51:06.188Z,14.17
2018-07-31T05:53:34.914Z,15.13
2018-07-31T05:56:03.818Z,14.80
2018-07-31T05:58:32.553Z,14.30
2018-07-31T06:01:01.274Z,14.50
2018-07-31T06:03:30.025Z,15.17
2018-07-31T06:05:58.824Z,13.10
2018-07-31T06:08:27.736Z,14.17
2018-07-31T06:10:56.611Z,21.10
2018-07-31T06:13:25.353Z,14.90
2018-07-31T06:15:54.042Z,16.90
2018-07-31T06:18:22.782Z,15.90
2018-07-31T06:20:51.589Z,14.37
2018-07-31T06:23:20.304Z,14.30
2018-07-31T06:25:49.062Z,15.70
2018-07-31T06:28:17.752Z,13.20
2018-07-31T06:30:46.450Z,12.00
2018-07-31T06:33:15.136Z,11.37
2018-07-31T06:35:43.848Z,13.63
2018-07-31T06:38:12.540Z,11.93
2018-07-31T06:40:41.434Z,11.40
2018-07-31T06:43:10.130Z,11.50
2018-07-31T06:45:38.827Z,12.90
2018-07-31T06:48:07.525Z,11.20
2018-07-31T06:50:36.549Z,12.07
2018-07-31T06:53:05.254Z,11.63
2018-07-31T06:55:34.046Z,12.80
2018-07-31T06:58:02.802Z,10.57
2018-07-31T07:00:31.517Z,10.30
2018-07-31T07:03:00.225Z,11.13
2018-07-31T07:05:29.002Z,10.27
2018-07-31T07:07:57.886Z,10.00
2018-07-31T07:10:26.587Z,9.50
2018-07-31T07:12:55.299Z,9.77
2018-07-31T07:15:24.175Z,9.27
2018-07-31T07:17:52.864Z,11.13
2018-07-31T07:20:21.556Z,9.30
2018-07-31T07:22:50.553Z,8.43
2018-07-31T07:25:19.252Z,8.90
2018-07-31T07:27:48.019Z,7.90
2018-07-31T07:30:16.726Z,9.70
2018-07-31T07:32:45.434Z,9.70
2018-07-31T07:35:14.166Z,9.37
2018-07-31T07:37:42.882Z,7.97
2018-07-31T07:40:11.744Z,8.10
2018-07-31T07:42:40.440Z,7.73
2018-07-31T07:45:09.760Z,7.47
2018-07-31T07:47:38.478Z,8.40
2018-07-31T07:50:07.277Z,8.33
2018-07-31T07:52:36.053Z,6.73
2018-07-31T07:55:04.760Z,7.43
2018-07-31T07:57:33.457Z,7.53
2018-07-31T08:00:02.184Z,7.77
2018-07-31T08:02:30.889Z,7.50
2018-07-31T08:04:59.626Z,6.90
2018-07-31T08:07:28.497Z,6.87
2018-07-31T08:09:57.208Z,6.67
2018-07-31T08:12:25.923Z,6.80
2018-07-31T08:14:54.723Z,6.73
2018-07-31T08:17:23.415Z,6.80
2018-07-31T08:19:52.135Z,6.50
2018-07-31T08:22:20.862Z,6.50
2018-07-31T08:24:49.603Z,6.93
2018-07-31T08:27:18.336Z,7.67
2018-07-31T08:29:47.100Z,7.30
2018-07-31T08:32:36.534Z,7.67
2018-07-31T08:35:05.324Z,8.10
2018-07-31T08:37:34.199Z,7.53
2018-07-31T08:40:02.929Z,8.43
2018-07-31T08:42:31.680Z,8.20
2018-07-31T08:45:00.413Z,7.53
2018-07-31T08:47:29.254Z,7.50
2018-07-31T08:49:57.955Z,9.20
2018-07-31T08:52:26.641Z,7.70
2018-07-31T08:54:55.337Z,7.80
2018-07-31T08:57:24.025Z,7.07
2018-07-31T08:59:52.709Z,7.80
2018-07-31T09:02:21.562Z,8.80
2018-07-31T09:04:50.280Z,7.53
2018-07-31T09:07:19.049Z,7.60
2018-07-31T09:09:47.749Z,8.10
2018-07-31T09:12:16.519Z,7.37
2018-07-31T09:14:45.259Z,6.43
2018-07-31T09:17:13.944Z,7.63
2018-07-31T09:19:42.647Z,7.37
2018-07-31T09:22:11.423Z,7.47
2018-07-31T09:24:40.296Z,8.40
2018-07-31T09:27:08.976Z,7.33
2018-07-31T09:29:37.719Z,8.03
2018-07-31T09:32:06.425Z,7.57
2018-07-31T09:34:40.178Z,8.23
2018-07-31T09:37:08.885Z,8.23
2018-07-31T09:39:37.612Z,7.80
2018-07-31T09:42:06.415Z,7.40
2018-07-31T09:44:35.154Z,6.90
2018-07-31T09:47:04.346Z,7.80
2018-07-31T09:49:33.065Z,7.73
2018-07-31T09:52:01.803Z,8.37
2018-07-31T09:54:30.626Z,7.77
2018-07-31T09:56:59.442Z,8.50
2018-07-31T09:59:28.310Z,8.13
2018-07-31T10:01:57.058Z,7.37
2018-07-31T10:04:25.823Z,7.77
2018-07-31T10:06:54.580Z,6.90
2018-07-31T10:09:24.292Z,7.07
2018-07-31T10:11:53.133Z,6.60
2018-07-31T10:14:21.838Z,6.30
2018-07-31T10:16:50.636Z,7.40
2018-07-31T10:19:19.368Z,8.43
2018-07-31T10:21:48.114Z,9.73
2018-07-31T10:24:16.882Z,9.07
2018-07-31T10:26:45.970Z,10.90
2018-07-31T10:29:14.699Z,12.00
2018-07-31T10:31:43.517Z,9.93
2018-07-31T10:34:12.305Z,9.20
2018-07-31T10:36:41.011Z,9.23
2018-07-31T10:39:09.745Z,7.73
2018-07-31T10:41:38.457Z,8.50
2018-07-31T10:44:07.224Z,8.40
2018-07-31T10:46:36.034Z,8.50
2018-07-31T10:49:04.768Z,7.97
2018-07-31T10:51:33.473Z,9.40
2018-07-31T10:54:02.214Z,7.20
2018-07-31T10:56:30.968Z,8.07
2018-07-31T10:58:59.842Z,8.37
2018-07-31T11:01:28.542Z,9.50
2018-07-31T11:03:58.554Z,7.30
2018-07-31T11:06:27.443Z,8.67
2018-07-31T11:08:56.269Z,8.23
2018-07-31T11:11:25.078Z,8.97
2018-07-31T11:13:53.966Z,9.20
2018-07-31T11:16:22.744Z,9.47
2018-07-31T11:18:51.548Z,9.03
2018-07-31T11:21:20.327Z,9.97
2018-07-31T11:23:49.053Z,8.80
2018-07-31T11:26:17.982Z,8.70
2018-07-31T11:28:46.816Z,9.70
2018-07-31T11:31:15.569Z,8.10
2018-07-31T11:33:44.366Z,8.57
2018-07-31T11:36:13.062Z,9.57
2018-07-31T11:38:41.770Z,9.00
2018-07-31T11:41:10.548Z,9.67
2018-07-31T11:43:39.259Z,8.30
2018-07-31T11:46:08.252Z,9.60
2018-07-31T11:48:36.940Z,9.63
2018-07-31T11:51:05.642Z,7.90
2018-07-31T11:53:34.481Z,8.00
2018-07-31T11:56:03.216Z,7.73
2018-07-31T11:58:32.067Z,8.70
2018-07-31T12:01:00.895Z,6.87
2018-07-31T12:03:29.787Z,8.57
2018-07-31T12:05:58.510Z,8.83
2018-07-31T12:08:27.212Z,8.97
2018-07-31T12:10:55.928Z,8.20
2018-07-31T12:13:24.646Z,7.90
2018-07-31T12:15:53.358Z,7.50
2018-07-31T12:18:22.125Z,7.53
2018-07-31T12:20:50.843Z,7.33
2018-07-31T12:23:19.561Z,6.57
2018-07-31T12:25:48.307Z,6.80
2018-07-31T12:28:17.325Z,6.50
2018-07-31T12:30:46.130Z,6.62
2018-07-31T12:33:14.888Z,6.00
2018-07-31T12:35:43.525Z,6.03
2018-07-31T12:38:12.272Z,6.50
2018-07-31T12:40:40.948Z,6.47
2018-07-31T12:43:09.921Z,6.15
2018-07-31T12:45:38.673Z,7.00
2018-07-31T12:48:07.457Z,8.85
2018-07-31T12:50:36.155Z,6.33
2018-07-31T12:53:04.902Z,6.50
2018-07-31T12:55:33.581Z,7.07
2018-07-31T12:58:02.279Z,6.37
2018-07-31T13:00:31.169Z,8.00
2018-07-31T13:02:59.877Z,8.10
2018-07-31T13:05:28.753Z,7.03
2018-07-31T13:07:57.453Z,7.70
2018-07-31T13:10:26.153Z,7.60
2018-07-31T13:12:54.850Z,7.50
2018-07-31T13:15:23.585Z,8.40
2018-07-31T13:17:52.323Z,7.30
2018-07-31T13:20:21.020Z,6.73
2018-07-31T13:22:49.755Z,8.03
2018-07-31T13:25:18.448Z,7.70
2018-07-31T13:27:47.228Z,7.23
2018-07-31T13:30:15.957Z,7.40
2018-07-31T13:32:44.668Z,7.50
2018-07-31T13:35:13.556Z,7.63
2018-07-31T13:37:42.296Z,7.63
2018-07-31T13:40:11.145Z,7.83
2018-07-31T13:42:40.046Z,8.27
2018-07-31T13:45:08.745Z,9.10
2018-07-31T13:47:37.434Z,7.63
2018-07-31T13:50:06.122Z,7.93
2018-07-31T13:52:34.817Z,9.00
2018-07-31T13:55:03.600Z,8.20
2018-07-31T13:57:32.309Z,7.80
2018-07-31T14:00:01.008Z,12.33
2018-07-31T14:02:29.738Z,11.90
2018-07-31T14:04:58.557Z,8.40
2018-07-31T14:07:27.328Z,8.93
2018-07-31T14:09:56.009Z,8.90
2018-07-31T14:12:24.866Z,8.90
2018-07-31T14:14:53.570Z,7.60
2018-07-31T14:17:22.252Z,9.50
2018-07-31T14:19:51.086Z,10.40
2018-07-31T14:22:19.789Z,9.80
2018-07-31T14:24:48.662Z,8.47
2018-07-31T14:27:17.381Z,8.67
2018-07-31T14:29:46.066Z,7.77
2018-07-31T14:32:14.785Z,9.87
2018-07-31T14:34:43.569Z,8.20
2018-07-31T14:37:12.290Z,8.20
2018-07-31T14:39:41.012Z,7.73
2018-07-31T14:42:09.714Z,8.90
2018-07-31T14:44:38.463Z,7.83
2018-07-31T14:47:07.162Z,8.50
2018-07-31T14:49:35.858Z,8.33
2018-07-31T14:52:04.549Z,7.90
2018-07-31T14:54:33.257Z,7.47
2018-07-31T14:57:02.164Z,8.73
2018-07-31T14:59:30.912Z,6.67
2018-07-31T15:01:59.615Z,7.60
2018-07-31T15:04:28.317Z,8.83
2018-07-31T15:06:57.009Z,8.30
2018-07-31T15:09:25.738Z,8.03
2018-07-31T15:11:54.436Z,8.37
2018-07-31T15:14:23.139Z,8.80
2018-07-31T15:16:51.868Z,9.23
2018-07-31T15:19:20.565Z,8.33
2018-07-31T15:21:49.261Z,7.13
2018-07-31T15:24:17.954Z,7.60
2018-07-31T15:26:46.663Z,7.83
2018-07-31T15:29:15.389Z,8.97
2018-07-31T15:31:44.103Z,7.80
2018-07-31T15:34:12.864Z,8.50
2018-07-31T15:36:41.717Z,7.13
2018-07-31T15:39:12.794Z,8.00
2018-07-31T15:41:41.843Z,10.10
2018-07-31T15:44:10.973Z,8.10
2018-07-31T15:46:39.665Z,7.20
2018-07-31T15:49:08.413Z,6.90
2018-07-31T15:51:37.103Z,7.30
2018-07-31T15:54:06.209Z,8.00
2018-07-31T15:56:35.298Z,8.07
2018-07-31T15:59:04.338Z,8.93
2018-07-31T16:01:33.453Z,8.70
2018-07-31T16:04:02.626Z,8.47
2018-07-31T16:06:31.826Z,7.77
2018-07-31T16:09:01.032Z,7.43
2018-07-31T16:11:30.277Z,8.07
2018-07-31T16:13:59.409Z,7.17
2018-07-31T16:16:28.617Z,9.03
2018-07-31T16:18:57.813Z,9.30
2018-07-31T16:21:27.022Z,8.43
2018-07-31T16:23:56.118Z,7.57
2018-07-31T16:26:25.101Z,11.53
2018-07-31T16:28:53.781Z,8.27
2018-07-31T16:31:22.847Z,9.67
2018-07-31T16:33:51.815Z,8.20
2018-07-31T16:36:20.658Z,8.20
2018-07-31T16:38:49.973Z,9.03
2018-07-31T16:41:19.190Z,8.47
2018-07-31T16:43:48.158Z,12.90
2018-07-31T16:46:17.641Z,12.80
2018-07-31T16:48:46.898Z,12.60
2018-07-31T16:51:16.082Z,15.60
2018-07-31T16:53:45.262Z,18.20
2018-07-31T16:56:14.461Z,15.40
2018-07-31T16:58:43.655Z,17.17
2018-07-31T17:01:12.885Z,15.07
2018-07-31T17:03:42.050Z,15.83
2018-07-31T17:06:11.579Z,16.40
2018-07-31T17:08:40.661Z,17.87
2018-07-31T17:11:09.752Z,18.97
2018-07-31T17:13:38.977Z,15.80
2018-07-31T17:16:08.317Z,17.90
2018-07-31T17:18:37.469Z,19.07
2018-07-31T17:21:06.641Z,17.90
2018-07-31T17:23:35.945Z,19.30
2018-07-31T17:26:05.077Z,22.00
2018-07-31T17:28:34.483Z,21.07
2018-07-31T17:31:03.641Z,21.33
2018-07-31T17:33:32.902Z,19.87
2018-07-31T17:36:01.867Z,19.90
2018-07-31T17:38:31.182Z,19.17
2018-07-31T17:41:00.337Z,22.27
2018-07-31T17:43:29.438Z,23.53
2018-07-31T17:45:58.154Z,20.07
2018-07-31T17:48:26.910Z,18.53
2018-07-31T17:50:55.673Z,18.30
2018-07-31T17:53:24.420Z,19.53
2018-07-31T17:55:53.290Z,22.13
2018-07-31T17:58:22.812Z,24.20
2018-07-31T18:00:51.555Z,24.33
2018-07-31T18:03:20.285Z,25.50
2018-07-31T18:05:48.973Z,28.93
2018-07-31T18:08:17.693Z,24.33
2018-07-31T18:10:46.410Z,27.33
2018-07-31T18:13:15.141Z,23.70
2018-07-31T18:15:43.914Z,26.47
2018-07-31T18:18:12.653Z,23.83
2018-07-31T18:20:41.493Z,38.30
2018-07-31T18:23:10.234Z,28.47
2018-07-31T18:25:38.965Z,24.03
2018-07-31T18:28:07.743Z,26.10
2018-07-31T18:30:36.448Z,27.40
2018-07-31T18:33:05.169Z,26.43
2018-07-31T18:35:34.001Z,25.63
2018-07-31T18:38:02.735Z,25.40
2018-07-31T18:40:31.530Z,24.40
2018-07-31T18:43:00.237Z,27.50
2018-07-31T18:45:29.063Z,24.53
2018-07-31T18:47:57.898Z,28.60
2018-07-31T18:50:26.645Z,26.00
2018-07-31T18:52:55.415Z,25.37
2018-07-31T18:55:24.149Z,22.77
2018-07-31T18:57:52.909Z,12.80
2018-07-31T19:00:21.627Z,9.50
2018-07-31T19:02:50.373Z,7.90
2018-07-31T19:05:19.085Z,7.87
2018-07-31T19:07:47.833Z,10.87
2018-07-31T19:10:16.560Z,11.00
2018-07-31T19:12:45.646Z,9.30
2018-07-31T19:15:14.493Z,9.30
2018-07-31T19:17:43.300Z,5.13
2018-07-31T19:20:12.176Z,6.80
2018-07-31T19:22:40.909Z,6.20
2018-07-31T19:25:09.641Z,7.93
2018-07-31T19:27:38.447Z,8.03
2018-07-31T19:30:07.381Z,10.43
2018-07-31T19:32:36.141Z,11.63
2018-07-31T19:35:04.910Z,11.30
2018-07-31T19:37:33.893Z,15.00
2018-07-31T19:40:02.626Z,13.40
2018-07-31T19:42:31.337Z,15.40
2018-07-31T19:45:00.181Z,17.33
2018-07-31T19:47:28.958Z,14.83
2018-07-31T19:49:57.897Z,16.37
2018-07-31T19:52:26.668Z,15.83
2018-07-31T19:54:55.620Z,16.00
2018-07-31T19:57:24.377Z,15.10
2018-07-31T19:59:53.100Z,18.73
2018-07-31T20:02:21.896Z,15.40
2018-07-31T20:04:50.657Z,14.70
2018-07-31T20:07:19.454Z,16.00
2018-07-31T20:09:48.374Z,14.37
2018-07-31T20:12:17.114Z,17.67
2018-07-31T20:14:45.886Z,17.23
2018-07-31T20:17:14.645Z,17.30
2018-07-31T20:19:43.372Z,17.40
2018-07-31T20:22:12.089Z,18.37
2018-07-31T20:24:40.870Z,17.67
2018-07-31T20:27:09.641Z,17.60
2018-07-31T20:29:38.354Z,18.60
2018-07-31T20:32:07.089Z,16.00
2018-07-31T20:34:35.885Z,16.60
2018-07-31T20:37:04.596Z,18.17
2018-07-31T20:39:33.487Z,21.00
2018-07-31T20:42:02.206Z,18.30
2018-07-31T20:44:30.926Z,18.40
2018-07-31T20:46:59.656Z,18.20
2018-07-31T20:49:28.394Z,15.70
2018-07-31T20:51:57.121Z,17.37
2018-07-31T20:54:25.820Z,17.43
2018-07-31T20:56:54.537Z,14.73
2018-07-31T20:59:23.567Z,16.10
2018-07-31T21:01:52.303Z,16.43
2018-07-31T21:04:21.043Z,14.70
2018-07-31T21:06:49.774Z,14.37
2018-07-31T21:09:21.259Z,18.27
2018-07-31T21:11:50.976Z,15.90
2018-07-31T21:14:20.065Z,16.10
2018-07-31T21:16:48.800Z,13.80
2018-07-31T21:19:17.534Z,15.03
2018-07-31T21:21:46.260Z,15.03
2018-07-31T21:24:15.041Z,13.50
2018-07-31T21:26:43.786Z,14.83
2018-07-31T21:29:12.689Z,16.27
2018-07-31T21:31:41.653Z,17.93
2018-07-31T21:34:10.423Z,14.60
2018-07-31T21:36:39.234Z,14.63
2018-07-31T21:39:09.812Z,13.73
2018-07-31T21:41:38.793Z,14.03
2018-07-31T21:44:07.561Z,16.60
2018-07-31T21:46:36.402Z,15.23
2018-07-31T21:49:05.170Z,15.90
2018-07-31T21:51:33.913Z,15.77
2018-07-31T21:54:02.733Z,16.10
2018-07-31T21:56:31.656Z,15.37
2018-07-31T21:59:00.457Z,17.43
2018-07-31T22:01:29.186Z,15.07
2018-07-31T22:03:57.943Z,14.30
2018-07-31T22:06:26.711Z,15.13
2018-07-31T22:08:55.461Z,14.90
2018-07-31T22:11:24.284Z,15.30
2018-07-31T22:13:53.029Z,15.70
2018-07-31T22:16:21.771Z,17.33
2018-07-31T22:18:50.528Z,19.10
2018-07-31T22:21:19.344Z,18.43
2018-07-31T22:23:48.177Z,17.43
2018-07-31T22:26:16.991Z,20.10
2018-07-31T22:28:45.715Z,16.33
2018-07-31T22:31:14.737Z,18.37
2018-07-31T22:33:43.538Z,18.30
2018-07-31T22:36:12.290Z,18.03
2018-07-31T22:38:41.022Z,18.90
2018-07-31T22:41:09.828Z,19.47
2018-07-31T22:43:38.608Z,17.80
2018-07-31T22:46:07.371Z,17.30
2018-07-31T22:48:36.102Z,17.23
2018-07-31T22:51:04.859Z,15.37
2018-07-31T22:53:33.591Z,15.20
2018-07-31T22:56:02.302Z,17.00
2018-07-31T22:58:31.036Z,16.20
2018-07-31T23:00:59.801Z,17.23
2018-07-31T23:03:28.510Z,17.93
2018-07-31T23:05:57.216Z,14.70
2018-07-31T23:08:26.024Z,15.80
2018-07-31T23:10:54.764Z,14.50
2018-07-31T23:13:23.580Z,14.07
2018-07-31T23:15:52.314Z,15.80
2018-07-31T23:18:21.097Z,15.17
2018-07-31T23:20:49.894Z,14.20
2018-07-31T23:23:18.652Z,14.27
2018-07-31T23:25:47.503Z,14.60
2018-07-31T23:28:16.238Z,16.10
2018-07-31T23:30:44.961Z,13.77
2018-07-31T23:33:13.690Z,12.73
2018-07-31T23:35:42.426Z,13.40
2018-07-31T23:38:11.181Z,11.27
2018-07-31T23:40:39.919Z,14.63
2018-07-31T23:43:08.641Z,12.17
2018-07-31T23:45:37.499Z,13.83
2018-07-31T23:48:06.385Z,14.77
2018-07-31T23:50:35.168Z,13.23
2018-07-31T23:53:03.911Z,12.80
2018-07-31T23:55:32.637Z,13.67
2018-07-31T23:58:01.391Z,15.20
